sensor_id;sensor_type;location;lat;lon;timestamp;P1;durP1;ratioP1;P2;durP2;ratioP2
13234;SDS011;6683;48.506;9.050;2023-02-24T00:02:27;11.00;;;6.10;;
13234;SDS011;6683;48.506;9.050;2023-02-24T00:05:31;10.33;;;5.30;;
13234;SDS011;6683;48.506;9.050;2023-02-24T00:08:36;8.70;;;5.07;;
13234;SDS011;6683;48.506;9.050;2023-02-24T00:11:41;7.33;;;5.60;;
13234;SDS011;6683;48.506;9.050;2023-02-24T00:14:45;9.57;;;5.53;;
13234;SDS011;6683;48.506;9.050;2023-02-24T00:17:48;9.33;;;5.33;;
13234;SDS011;6683;48.506;9.050;2023-02-24T00:20:50;6.53;;;4.47;;
13234;SDS011;6683;48.506;9.050;2023-02-24T00:23:55;9.70;;;5.33;;
13234;SDS011;6683;48.506;9.050;2023-02-24T00:27:01;8.73;;;5.20;;
13234;SDS011;6683;48.506;9.050;2023-02-24T00:30:08;7.23;;;5.43;;
13234;SDS011;6683;48.506;9.050;2023-02-24T00:33:11;6.40;;;5.20;;
13234;SDS011;6683;48.506;9.050;2023-02-24T00:36:14;7.77;;;4.97;;
13234;SDS011;6683;48.506;9.050;2023-02-24T00:39:22;7.70;;;4.83;;
13234;SDS011;6683;48.506;9.050;2023-02-24T00:42:31;7.00;;;5.33;;
13234;SDS011;6683;48.506;9.050;2023-02-24T00:45:34;6.43;;;5.10;;
13234;SDS011;6683;48.506;9.050;2023-02-24T00:48:38;7.13;;;4.83;;
13234;SDS011;6683;48.506;9.050;2023-02-24T00:51:42;6.87;;;4.47;;
13234;SDS011;6683;48.506;9.050;2023-02-24T00:54:47;6.97;;;4.73;;
13234;SDS011;6683;48.506;9.050;2023-02-24T00:57:51;7.73;;;4.97;;
13234;SDS011;6683;48.506;9.050;2023-02-24T01:00:53;7.80;;;4.93;;
13234;SDS011;6683;48.506;9.050;2023-02-24T01:03:57;6.10;;;4.47;;
13234;SDS011;6683;48.506;9.050;2023-02-24T01:07:04;6.43;;;4.83;;
13234;SDS011;6683;48.506;9.050;2023-02-24T01:10:10;8.17;;;4.93;;
13234;SDS011;6683;48.506;9.050;2023-02-24T01:13:13;5.87;;;4.57;;
13234;SDS011;6683;48.506;9.050;2023-02-24T01:16:15;7.77;;;4.47;;
13234;SDS011;6683;48.506;9.050;2023-02-24T01:19:19;9.43;;;5.33;;
13234;SDS011;6683;48.506;9.050;2023-02-24T01:22:24;7.10;;;4.57;;
13234;SDS011;6683;48.506;9.050;2023-02-24T01:25:26;6.10;;;4.80;;
13234;SDS011;6683;48.506;9.050;2023-02-24T01:28:31;7.07;;;4.73;;
13234;SDS011;6683;48.506;9.050;2023-02-24T01:31:34;6.70;;;4.63;;
13234;SDS011;6683;48.506;9.050;2023-02-24T01:34:41;5.63;;;4.50;;
13234;SDS011;6683;48.506;9.050;2023-02-24T01:37:43;5.37;;;4.17;;
13234;SDS011;6683;48.506;9.050;2023-02-24T01:40:45;5.40;;;4.30;;
13234;SDS011;6683;48.506;9.050;2023-02-24T01:44:00;7.63;;;4.80;;
13234;SDS011;6683;48.506;9.050;2023-02-24T01:47:05;5.77;;;4.53;;
13234;SDS011;6683;48.506;9.050;2023-02-24T01:50:08;6.10;;;4.30;;
13234;SDS011;6683;48.506;9.050;2023-02-24T01:53:14;6.77;;;4.47;;
13234;SDS011;6683;48.506;9.050;2023-02-24T01:56:17;4.80;;;4.07;;
13234;SDS011;6683;48.506;9.050;2023-02-24T01:59:21;6.57;;;4.70;;
13234;SDS011;6683;48.506;9.050;2023-02-24T02:02:28;5.97;;;5.07;;
13234;SDS011;6683;48.506;9.050;2023-02-24T02:05:30;6.90;;;4.50;;
13234;SDS011;6683;48.506;9.050;2023-02-24T02:08:33;5.73;;;4.20;;
13234;SDS011;6683;48.506;9.050;2023-02-24T02:11:38;7.43;;;4.03;;
13234;SDS011;6683;48.506;9.050;2023-02-24T02:14:43;5.73;;;4.77;;
13234;SDS011;6683;48.506;9.050;2023-02-24T02:17:54;5.97;;;4.80;;
13234;SDS011;6683;48.506;9.050;2023-02-24T02:21:22;7.30;;;4.93;;
13234;SDS011;6683;48.506;9.050;2023-02-24T02:24:59;6.43;;;4.50;;
13234;SDS011;6683;48.506;9.050;2023-02-24T02:28:22;8.60;;;5.10;;
13234;SDS011;6683;48.506;9.050;2023-02-24T02:31:51;6.93;;;4.00;;
13234;SDS011;6683;48.506;9.050;2023-02-24T02:35:33;5.33;;;4.63;;
13234;SDS011;6683;48.506;9.050;2023-02-24T02:38:41;6.57;;;4.33;;
13234;SDS011;6683;48.506;9.050;2023-02-24T02:41:53;6.13;;;4.70;;
13234;SDS011;6683;48.506;9.050;2023-02-24T02:45:06;6.20;;;4.47;;
13234;SDS011;6683;48.506;9.050;2023-02-24T02:48:14;6.27;;;5.03;;
13234;SDS011;6683;48.506;9.050;2023-02-24T02:51:23;10.13;;;4.87;;
13234;SDS011;6683;48.506;9.050;2023-02-24T02:54:34;7.27;;;4.70;;
13234;SDS011;6683;48.506;9.050;2023-02-24T02:57:45;5.83;;;4.80;;
13234;SDS011;6683;48.506;9.050;2023-02-24T03:00:52;7.03;;;4.63;;
13234;SDS011;6683;48.506;9.050;2023-02-24T03:04:02;5.67;;;4.87;;
13234;SDS011;6683;48.506;9.050;2023-02-24T03:07:08;7.50;;;4.60;;
13234;SDS011;6683;48.506;9.050;2023-02-24T03:10:16;5.33;;;4.33;;
13234;SDS011;6683;48.506;9.050;2023-02-24T03:13:23;7.07;;;4.23;;
13234;SDS011;6683;48.506;9.050;2023-02-24T03:16:29;7.10;;;4.70;;
13234;SDS011;6683;48.506;9.050;2023-02-24T03:19:35;7.00;;;4.90;;
13234;SDS011;6683;48.506;9.050;2023-02-24T03:22:41;5.77;;;4.37;;
13234;SDS011;6683;48.506;9.050;2023-02-24T03:25:50;8.60;;;4.83;;
13234;SDS011;6683;48.506;9.050;2023-02-24T03:29:01;6.23;;;4.13;;
13234;SDS011;6683;48.506;9.050;2023-02-24T03:32:11;5.93;;;4.47;;
13234;SDS011;6683;48.506;9.050;2023-02-24T03:35:20;7.63;;;4.27;;
13234;SDS011;6683;48.506;9.050;2023-02-24T03:38:26;7.03;;;4.87;;
13234;SDS011;6683;48.506;9.050;2023-02-24T03:41:31;5.50;;;4.30;;
13234;SDS011;6683;48.506;9.050;2023-02-24T03:44:40;7.63;;;4.23;;
13234;SDS011;6683;48.506;9.050;2023-02-24T03:47:43;6.57;;;4.33;;
13234;SDS011;6683;48.506;9.050;2023-02-24T03:50:45;6.67;;;4.03;;
13234;SDS011;6683;48.506;9.050;2023-02-24T03:53:54;7.40;;;4.67;;
13234;SDS011;6683;48.506;9.050;2023-02-24T03:57:08;6.57;;;4.80;;
13234;SDS011;6683;48.506;9.050;2023-02-24T04:00:22;6.87;;;4.83;;
13234;SDS011;6683;48.506;9.050;2023-02-24T04:03:36;5.93;;;4.23;;
13234;SDS011;6683;48.506;9.050;2023-02-24T04:06:50;7.70;;;4.47;;
13234;SDS011;6683;48.506;9.050;2023-02-24T04:10:01;6.40;;;5.07;;
13234;SDS011;6683;48.506;9.050;2023-02-24T04:13:11;5.47;;;4.77;;
13234;SDS011;6683;48.506;9.050;2023-02-24T04:16:20;7.63;;;4.43;;
13234;SDS011;6683;48.506;9.050;2023-02-24T04:19:28;6.43;;;4.87;;
13234;SDS011;6683;48.506;9.050;2023-02-24T04:22:37;6.10;;;4.67;;
13234;SDS011;6683;48.506;9.050;2023-02-24T04:25:43;8.20;;;4.87;;
13234;SDS011;6683;48.506;9.050;2023-02-24T04:28:49;7.10;;;5.37;;
13234;SDS011;6683;48.506;9.050;2023-02-24T04:31:55;8.33;;;4.93;;
13234;SDS011;6683;48.506;9.050;2023-02-24T04:35:03;6.13;;;5.27;;
13234;SDS011;6683;48.506;9.050;2023-02-24T04:38:08;7.20;;;5.20;;
13234;SDS011;6683;48.506;9.050;2023-02-24T04:41:12;7.10;;;5.10;;
13234;SDS011;6683;48.506;9.050;2023-02-24T04:44:20;9.20;;;5.53;;
13234;SDS011;6683;48.506;9.050;2023-02-24T04:47:23;6.57;;;4.97;;
13234;SDS011;6683;48.506;9.050;2023-02-24T04:50:30;7.93;;;5.10;;
13234;SDS011;6683;48.506;9.050;2023-02-24T04:53:35;8.20;;;5.40;;
13234;SDS011;6683;48.506;9.050;2023-02-24T04:56:38;9.63;;;5.13;;
13234;SDS011;6683;48.506;9.050;2023-02-24T04:59:41;6.27;;;5.03;;
13234;SDS011;6683;48.506;9.050;2023-02-24T05:02:43;6.30;;;5.03;;
13234;SDS011;6683;48.506;9.050;2023-02-24T05:05:47;8.23;;;5.30;;
13234;SDS011;6683;48.506;9.050;2023-02-24T05:08:55;7.63;;;5.53;;
13234;SDS011;6683;48.506;9.050;2023-02-24T05:12:01;8.27;;;5.50;;
13234;SDS011;6683;48.506;9.050;2023-02-24T05:15:05;7.67;;;5.03;;
13234;SDS011;6683;48.506;9.050;2023-02-24T05:18:11;6.80;;;5.17;;
13234;SDS011;6683;48.506;9.050;2023-02-24T05:21:16;6.13;;;5.17;;
13234;SDS011;6683;48.506;9.050;2023-02-24T05:24:36;8.17;;;5.07;;
13234;SDS011;6683;48.506;9.050;2023-02-24T05:27:41;5.20;;;4.50;;
13234;SDS011;6683;48.506;9.050;2023-02-24T05:30:44;5.47;;;4.63;;
13234;SDS011;6683;48.506;9.050;2023-02-24T05:33:47;7.97;;;4.33;;
13234;SDS011;6683;48.506;9.050;2023-02-24T05:36:56;7.97;;;5.20;;
13234;SDS011;6683;48.506;9.050;2023-02-24T05:40:00;6.97;;;4.70;;
13234;SDS011;6683;48.506;9.050;2023-02-24T05:43:04;6.63;;;4.77;;
13234;SDS011;6683;48.506;9.050;2023-02-24T05:46:06;5.77;;;4.10;;
13234;SDS011;6683;48.506;9.050;2023-02-24T05:49:10;7.17;;;4.47;;
13234;SDS011;6683;48.506;9.050;2023-02-24T05:52:14;5.83;;;4.83;;
13234;SDS011;6683;48.506;9.050;2023-02-24T05:55:17;8.03;;;4.67;;
13234;SDS011;6683;48.506;9.050;2023-02-24T05:58:23;6.90;;;5.50;;
13234;SDS011;6683;48.506;9.050;2023-02-24T06:01:28;8.43;;;5.47;;
13234;SDS011;6683;48.506;9.050;2023-02-24T06:04:32;5.40;;;4.50;;
13234;SDS011;6683;48.506;9.050;2023-02-24T06:07:49;7.17;;;4.83;;
13234;SDS011;6683;48.506;9.050;2023-02-24T06:11:15;6.47;;;4.80;;
13234;SDS011;6683;48.506;9.050;2023-02-24T06:14:20;8.53;;;5.13;;
13234;SDS011;6683;48.506;9.050;2023-02-24T06:17:23;5.80;;;4.63;;
13234;SDS011;6683;48.506;9.050;2023-02-24T06:20:26;6.40;;;4.97;;
13234;SDS011;6683;48.506;9.050;2023-02-24T06:23:32;6.97;;;5.13;;
13234;SDS011;6683;48.506;9.050;2023-02-24T06:26:34;7.13;;;4.73;;
13234;SDS011;6683;48.506;9.050;2023-02-24T06:29:38;5.90;;;5.30;;
13234;SDS011;6683;48.506;9.050;2023-02-24T06:32:40;6.73;;;5.70;;
13234;SDS011;6683;48.506;9.050;2023-02-24T06:35:43;6.97;;;5.33;;
13234;SDS011;6683;48.506;9.050;2023-02-24T06:38:46;9.90;;;4.97;;
13234;SDS011;6683;48.506;9.050;2023-02-24T06:41:50;7.47;;;5.30;;
13234;SDS011;6683;48.506;9.050;2023-02-24T06:44:54;9.93;;;6.03;;
13234;SDS011;6683;48.506;9.050;2023-02-24T06:47:56;9.57;;;5.47;;
13234;SDS011;6683;48.506;9.050;2023-02-24T06:51:02;7.33;;;5.40;;
13234;SDS011;6683;48.506;9.050;2023-02-24T06:54:06;7.90;;;5.73;;
13234;SDS011;6683;48.506;9.050;2023-02-24T06:57:08;7.17;;;5.33;;
13234;SDS011;6683;48.506;9.050;2023-02-24T07:00:14;9.00;;;5.60;;
13234;SDS011;6683;48.506;9.050;2023-02-24T07:03:19;8.47;;;5.80;;
13234;SDS011;6683;48.506;9.050;2023-02-24T07:06:23;8.20;;;5.37;;
13234;SDS011;6683;48.506;9.050;2023-02-24T07:09:29;5.87;;;5.20;;
13234;SDS011;6683;48.506;9.050;2023-02-24T07:12:32;8.90;;;5.40;;
13234;SDS011;6683;48.506;9.050;2023-02-24T07:15:36;10.23;;;5.77;;
13234;SDS011;6683;48.506;9.050;2023-02-24T07:18:38;6.40;;;4.90;;
13234;SDS011;6683;48.506;9.050;2023-02-24T07:21:42;8.97;;;5.37;;
13234;SDS011;6683;48.506;9.050;2023-02-24T07:24:49;9.20;;;5.00;;
13234;SDS011;6683;48.506;9.050;2023-02-24T07:27:59;9.97;;;5.03;;
13234;SDS011;6683;48.506;9.050;2023-02-24T07:31:04;6.40;;;4.77;;
13234;SDS011;6683;48.506;9.050;2023-02-24T07:34:08;6.33;;;5.27;;
13234;SDS011;6683;48.506;9.050;2023-02-24T07:37:13;7.37;;;5.00;;
13234;SDS011;6683;48.506;9.050;2023-02-24T07:40:16;7.40;;;5.50;;
13234;SDS011;6683;48.506;9.050;2023-02-24T07:43:21;8.97;;;6.00;;
13234;SDS011;6683;48.506;9.050;2023-02-24T07:46:25;7.73;;;5.40;;
13234;SDS011;6683;48.506;9.050;2023-02-24T07:49:28;10.57;;;5.77;;
13234;SDS011;6683;48.506;9.050;2023-02-24T07:52:30;8.23;;;5.43;;
13234;SDS011;6683;48.506;9.050;2023-02-24T07:55:33;8.10;;;4.93;;
13234;SDS011;6683;48.506;9.050;2023-02-24T07:58:35;9.30;;;5.40;;
13234;SDS011;6683;48.506;9.050;2023-02-24T08:01:40;8.17;;;5.43;;
13234;SDS011;6683;48.506;9.050;2023-02-24T08:04:48;8.60;;;6.20;;
13234;SDS011;6683;48.506;9.050;2023-02-24T08:07:50;7.20;;;5.17;;
13234;SDS011;6683;48.506;9.050;2023-02-24T08:10:56;8.17;;;5.57;;
13234;SDS011;6683;48.506;9.050;2023-02-24T08:14:03;11.03;;;5.40;;
13234;SDS011;6683;48.506;9.050;2023-02-24T08:17:11;8.60;;;5.93;;
13234;SDS011;6683;48.506;9.050;2023-02-24T08:20:19;10.90;;;6.57;;
13234;SDS011;6683;48.506;9.050;2023-02-24T08:23:24;10.20;;;5.57;;
13234;SDS011;6683;48.506;9.050;2023-02-24T08:26:26;10.67;;;6.73;;
13234;SDS011;6683;48.506;9.050;2023-02-24T08:29:30;7.97;;;5.97;;
13234;SDS011;6683;48.506;9.050;2023-02-24T08:32:41;10.07;;;6.50;;
13234;SDS011;6683;48.506;9.050;2023-02-24T08:35:49;11.17;;;7.60;;
13234;SDS011;6683;48.506;9.050;2023-02-24T08:38:59;10.40;;;6.83;;
13234;SDS011;6683;48.506;9.050;2023-02-24T08:42:02;8.47;;;6.37;;
13234;SDS011;6683;48.506;9.050;2023-02-24T08:45:06;9.87;;;6.73;;
13234;SDS011;6683;48.506;9.050;2023-02-24T08:48:10;9.07;;;6.73;;
13234;SDS011;6683;48.506;9.050;2023-02-24T08:51:26;11.10;;;6.77;;
13234;SDS011;6683;48.506;9.050;2023-02-24T08:54:33;8.60;;;6.10;;
13234;SDS011;6683;48.506;9.050;2023-02-24T08:57:47;9.73;;;5.87;;
13234;SDS011;6683;48.506;9.050;2023-02-24T09:00:50;10.73;;;5.67;;
13234;SDS011;6683;48.506;9.050;2023-02-24T09:03:55;9.23;;;6.17;;
13234;SDS011;6683;48.506;9.050;2023-02-24T09:06:59;8.13;;;5.73;;
13234;SDS011;6683;48.506;9.050;2023-02-24T09:10:07;9.30;;;5.90;;
13234;SDS011;6683;48.506;9.050;2023-02-24T09:13:16;8.43;;;5.70;;
13234;SDS011;6683;48.506;9.050;2023-02-24T09:16:19;13.17;;;6.77;;
13234;SDS011;6683;48.506;9.050;2023-02-24T09:19:24;9.50;;;6.90;;
13234;SDS011;6683;48.506;9.050;2023-02-24T09:23:01;10.27;;;6.73;;
13234;SDS011;6683;48.506;9.050;2023-02-24T09:26:06;8.60;;;6.07;;
13234;SDS011;6683;48.506;9.050;2023-02-24T09:29:10;12.87;;;6.47;;
13234;SDS011;6683;48.506;9.050;2023-02-24T09:32:27;12.27;;;6.63;;
13234;SDS011;6683;48.506;9.050;2023-02-24T09:35:31;7.30;;;5.90;;
13234;SDS011;6683;48.506;9.050;2023-02-24T09:38:41;8.33;;;5.70;;
13234;SDS011;6683;48.506;9.050;2023-02-24T09:42:03;7.23;;;5.77;;
13234;SDS011;6683;48.506;9.050;2023-02-24T09:45:31;8.90;;;6.27;;
13234;SDS011;6683;48.506;9.050;2023-02-24T09:48:37;6.93;;;5.50;;
13234;SDS011;6683;48.506;9.050;2023-02-24T09:51:45;8.17;;;5.83;;
13234;SDS011;6683;48.506;9.050;2023-02-24T09:54:59;8.87;;;6.13;;
13234;SDS011;6683;48.506;9.050;2023-02-24T09:58:19;8.47;;;6.00;;
13234;SDS011;6683;48.506;9.050;2023-02-24T10:01:34;8.17;;;5.63;;
13234;SDS011;6683;48.506;9.050;2023-02-24T10:04:50;12.03;;;6.00;;
13234;SDS011;6683;48.506;9.050;2023-02-24T10:08:09;10.87;;;6.47;;
13234;SDS011;6683;48.506;9.050;2023-02-24T10:11:30;9.47;;;5.53;;
13234;SDS011;6683;48.506;9.050;2023-02-24T10:14:36;8.83;;;5.90;;
13234;SDS011;6683;48.506;9.050;2023-02-24T10:17:48;10.83;;;5.63;;
13234;SDS011;6683;48.506;9.050;2023-02-24T10:20:55;9.53;;;5.10;;
13234;SDS011;6683;48.506;9.050;2023-02-24T10:24:10;8.83;;;5.23;;
13234;SDS011;6683;48.506;9.050;2023-02-24T10:27:22;8.30;;;6.03;;
13234;SDS011;6683;48.506;9.050;2023-02-24T10:30:37;8.20;;;5.53;;
13234;SDS011;6683;48.506;9.050;2023-02-24T10:33:49;9.60;;;5.27;;
13234;SDS011;6683;48.506;9.050;2023-02-24T10:36:56;9.17;;;5.83;;
13234;SDS011;6683;48.506;9.050;2023-02-24T10:40:03;8.77;;;5.17;;
13234;SDS011;6683;48.506;9.050;2023-02-24T10:43:10;7.63;;;5.63;;
13234;SDS011;6683;48.506;9.050;2023-02-24T10:46:26;8.80;;;5.87;;
13234;SDS011;6683;48.506;9.050;2023-02-24T10:49:37;7.93;;;5.50;;
13234;SDS011;6683;48.506;9.050;2023-02-24T10:53:00;8.90;;;5.50;;
13234;SDS011;6683;48.506;9.050;2023-02-24T10:56:26;10.47;;;5.83;;
13234;SDS011;6683;48.506;9.050;2023-02-24T10:59:47;8.67;;;5.27;;
13234;SDS011;6683;48.506;9.050;2023-02-24T11:03:13;7.90;;;5.10;;
13234;SDS011;6683;48.506;9.050;2023-02-24T11:06:24;7.57;;;5.00;;
13234;SDS011;6683;48.506;9.050;2023-02-24T11:10:01;8.00;;;5.37;;
13234;SDS011;6683;48.506;9.050;2023-02-24T11:13:14;6.20;;;4.90;;
13234;SDS011;6683;48.506;9.050;2023-02-24T11:16:43;8.67;;;5.13;;
13234;SDS011;6683;48.506;9.050;2023-02-24T11:20:10;6.90;;;4.70;;
13234;SDS011;6683;48.506;9.050;2023-02-24T11:23:25;7.73;;;4.60;;
13234;SDS011;6683;48.506;9.050;2023-02-24T11:26:34;7.43;;;4.97;;
13234;SDS011;6683;48.506;9.050;2023-02-24T11:29:43;11.20;;;5.00;;
13234;SDS011;6683;48.506;9.050;2023-02-24T11:33:10;10.50;;;5.43;;
13234;SDS011;6683;48.506;9.050;2023-02-24T11:36:26;7.97;;;5.57;;
13234;SDS011;6683;48.506;9.050;2023-02-24T11:39:42;7.87;;;5.03;;
13234;SDS011;6683;48.506;9.050;2023-02-24T11:42:53;10.87;;;5.33;;
13234;SDS011;6683;48.506;9.050;2023-02-24T11:46:03;10.60;;;5.10;;
13234;SDS011;6683;48.506;9.050;2023-02-24T11:49:16;13.60;;;4.83;;
13234;SDS011;6683;48.506;9.050;2023-02-24T11:52:30;8.73;;;4.40;;
13234;SDS011;6683;48.506;9.050;2023-02-24T11:55:39;11.20;;;5.00;;
13234;SDS011;6683;48.506;9.050;2023-02-24T11:58:47;6.20;;;4.40;;
13234;SDS011;6683;48.506;9.050;2023-02-24T12:02:02;8.70;;;4.37;;
13234;SDS011;6683;48.506;9.050;2023-02-24T12:05:15;7.80;;;4.33;;
13234;SDS011;6683;48.506;9.050;2023-02-24T12:08:23;7.03;;;4.17;;
13234;SDS011;6683;48.506;9.050;2023-02-24T12:11:34;8.23;;;4.17;;
13234;SDS011;6683;48.506;9.050;2023-02-24T12:14:45;7.73;;;4.10;;
13234;SDS011;6683;48.506;9.050;2023-02-24T12:17:54;4.93;;;3.37;;
13234;SDS011;6683;48.506;9.050;2023-02-24T12:21:04;9.10;;;4.03;;
13234;SDS011;6683;48.506;9.050;2023-02-24T12:24:12;7.77;;;3.97;;
13234;SDS011;6683;48.506;9.050;2023-02-24T12:27:18;7.73;;;4.90;;
13234;SDS011;6683;48.506;9.050;2023-02-24T12:30:49;7.20;;;4.30;;
13234;SDS011;6683;48.506;9.050;2023-02-24T12:34:10;12.33;;;4.90;;
13234;SDS011;6683;48.506;9.050;2023-02-24T12:37:23;7.87;;;4.13;;
13234;SDS011;6683;48.506;9.050;2023-02-24T12:40:42;8.30;;;4.37;;
13234;SDS011;6683;48.506;9.050;2023-02-24T12:43:52;10.60;;;6.43;;
13234;SDS011;6683;48.506;9.050;2023-02-24T12:47:04;9.23;;;4.53;;
13234;SDS011;6683;48.506;9.050;2023-02-24T12:50:19;7.47;;;4.27;;
13234;SDS011;6683;48.506;9.050;2023-02-24T12:53:37;9.23;;;4.50;;
13234;SDS011;6683;48.506;9.050;2023-02-24T12:56:45;8.50;;;4.70;;
13234;SDS011;6683;48.506;9.050;2023-02-24T13:00:01;7.23;;;4.17;;
13234;SDS011;6683;48.506;9.050;2023-02-24T13:03:16;8.87;;;4.33;;
13234;SDS011;6683;48.506;9.050;2023-02-24T13:06:39;9.63;;;4.53;;
13234;SDS011;6683;48.506;9.050;2023-02-24T13:10:08;13.07;;;5.00;;
13234;SDS011;6683;48.506;9.050;2023-02-24T13:13:24;6.33;;;4.27;;
13234;SDS011;6683;48.506;9.050;2023-02-24T13:16:35;8.33;;;4.40;;
13234;SDS011;6683;48.506;9.050;2023-02-24T13:19:38;8.60;;;4.83;;
13234;SDS011;6683;48.506;9.050;2023-02-24T13:22:43;6.67;;;3.97;;
13234;SDS011;6683;48.506;9.050;2023-02-24T13:25:49;8.83;;;4.13;;
13234;SDS011;6683;48.506;9.050;2023-02-24T13:28:57;8.73;;;5.30;;
13234;SDS011;6683;48.506;9.050;2023-02-24T13:32:02;9.03;;;4.60;;
13234;SDS011;6683;48.506;9.050;2023-02-24T13:38:37;11.90;;;4.27;;
13234;SDS011;6683;48.506;9.050;2023-02-24T13:41:42;11.13;;;4.50;;
13234;SDS011;6683;48.506;9.050;2023-02-24T13:44:46;10.67;;;4.90;;
13234;SDS011;6683;48.506;9.050;2023-02-24T13:48:03;9.50;;;5.10;;
13234;SDS011;6683;48.506;9.050;2023-02-24T13:51:29;9.10;;;5.47;;
13234;SDS011;6683;48.506;9.050;2023-02-24T13:55:06;15.50;;;5.97;;
13234;SDS011;6683;48.506;9.050;2023-02-24T13:58:35;10.40;;;4.17;;
13234;SDS011;6683;48.506;9.050;2023-02-24T14:01:55;12.30;;;4.00;;
13234;SDS011;6683;48.506;9.050;2023-02-24T14:05:00;10.53;;;3.77;;
13234;SDS011;6683;48.506;9.050;2023-02-24T14:08:14;7.67;;;4.93;;
13234;SDS011;6683;48.506;9.050;2023-02-24T14:11:24;10.27;;;4.70;;
13234;SDS011;6683;48.506;9.050;2023-02-24T14:14:30;11.03;;;4.00;;
13234;SDS011;6683;48.506;9.050;2023-02-24T14:17:33;8.20;;;4.20;;
13234;SDS011;6683;48.506;9.050;2023-02-24T14:20:37;9.37;;;3.70;;
13234;SDS011;6683;48.506;9.050;2023-02-24T14:23:40;7.30;;;3.43;;
13234;SDS011;6683;48.506;9.050;2023-02-24T14:26:45;10.30;;;3.73;;
13234;SDS011;6683;48.506;9.050;2023-02-24T14:29:51;9.30;;;3.47;;
13234;SDS011;6683;48.506;9.050;2023-02-24T14:32:53;11.17;;;4.20;;
13234;SDS011;6683;48.506;9.050;2023-02-24T14:35:56;5.97;;;3.23;;
13234;SDS011;6683;48.506;9.050;2023-02-24T14:39:03;7.00;;;3.30;;
13234;SDS011;6683;48.506;9.050;2023-02-24T14:42:14;5.93;;;3.33;;
13234;SDS011;6683;48.506;9.050;2023-02-24T14:45:17;6.03;;;3.13;;
13234;SDS011;6683;48.506;9.050;2023-02-24T14:48:25;6.77;;;3.77;;
13234;SDS011;6683;48.506;9.050;2023-02-24T14:51:30;6.60;;;3.00;;
13234;SDS011;6683;48.506;9.050;2023-02-24T14:54:38;4.83;;;3.10;;
13234;SDS011;6683;48.506;9.050;2023-02-24T14:57:48;6.87;;;3.20;;
13234;SDS011;6683;48.506;9.050;2023-02-24T15:00:58;8.73;;;3.47;;
13234;SDS011;6683;48.506;9.050;2023-02-24T15:04:09;6.80;;;3.60;;
13234;SDS011;6683;48.506;9.050;2023-02-24T15:07:16;6.97;;;3.40;;
13234;SDS011;6683;48.506;9.050;2023-02-24T15:10:23;5.47;;;3.93;;
13234;SDS011;6683;48.506;9.050;2023-02-24T15:13:32;7.13;;;3.30;;
13234;SDS011;6683;48.506;9.050;2023-02-24T15:16:40;7.07;;;3.83;;
13234;SDS011;6683;48.506;9.050;2023-02-24T15:19:46;8.23;;;4.17;;
13234;SDS011;6683;48.506;9.050;2023-02-24T15:22:53;7.97;;;4.13;;
13234;SDS011;6683;48.506;9.050;2023-02-24T15:25:56;8.13;;;3.80;;
13234;SDS011;6683;48.506;9.050;2023-02-24T15:29:01;10.33;;;4.33;;
13234;SDS011;6683;48.506;9.050;2023-02-24T15:32:14;11.27;;;4.20;;
13234;SDS011;6683;48.506;9.050;2023-02-24T15:35:20;11.00;;;4.47;;
13234;SDS011;6683;48.506;9.050;2023-02-24T15:38:25;7.67;;;3.77;;
13234;SDS011;6683;48.506;9.050;2023-02-24T15:41:37;7.03;;;4.30;;
13234;SDS011;6683;48.506;9.050;2023-02-24T15:44:51;11.20;;;4.47;;
13234;SDS011;6683;48.506;9.050;2023-02-24T15:47:55;5.37;;;3.60;;
13234;SDS011;6683;48.506;9.050;2023-02-24T15:51:00;5.97;;;4.23;;
13234;SDS011;6683;48.506;9.050;2023-02-24T15:54:06;9.03;;;4.13;;
13234;SDS011;6683;48.506;9.050;2023-02-24T15:57:13;8.53;;;4.30;;
13234;SDS011;6683;48.506;9.050;2023-02-24T16:00:21;7.27;;;3.73;;
13234;SDS011;6683;48.506;9.050;2023-02-24T16:03:24;9.77;;;4.63;;
13234;SDS011;6683;48.506;9.050;2023-02-24T16:06:26;7.07;;;4.40;;
13234;SDS011;6683;48.506;9.050;2023-02-24T16:09:31;10.43;;;4.83;;
13234;SDS011;6683;48.506;9.050;2023-02-24T16:12:44;9.77;;;4.53;;
13234;SDS011;6683;48.506;9.050;2023-02-24T16:15:51;9.67;;;4.33;;
13234;SDS011;6683;48.506;9.050;2023-02-24T16:18:55;10.67;;;4.40;;
13234;SDS011;6683;48.506;9.050;2023-02-24T16:21:57;9.83;;;4.10;;
13234;SDS011;6683;48.506;9.050;2023-02-24T16:25:00;13.07;;;4.47;;
13234;SDS011;6683;48.506;9.050;2023-02-24T16:28:02;9.60;;;4.30;;
13234;SDS011;6683;48.506;9.050;2023-02-24T16:31:06;8.63;;;4.70;;
13234;SDS011;6683;48.506;9.050;2023-02-24T16:34:09;7.57;;;4.57;;
13234;SDS011;6683;48.506;9.050;2023-02-24T16:37:16;15.43;;;7.80;;
13234;SDS011;6683;48.506;9.050;2023-02-24T16:40:22;12.37;;;7.07;;
13234;SDS011;6683;48.506;9.050;2023-02-24T16:43:26;14.70;;;9.10;;
13234;SDS011;6683;48.506;9.050;2023-02-24T16:46:33;10.77;;;6.30;;
13234;SDS011;6683;48.506;9.050;2023-02-24T16:49:40;9.80;;;5.23;;
13234;SDS011;6683;48.506;9.050;2023-02-24T16:52:42;10.70;;;5.60;;
13234;SDS011;6683;48.506;9.050;2023-02-24T16:55:44;10.60;;;4.57;;
13234;SDS011;6683;48.506;9.050;2023-02-24T16:58:47;9.80;;;4.90;;
13234;SDS011;6683;48.506;9.050;2023-02-24T17:01:51;9.60;;;5.40;;
13234;SDS011;6683;48.506;9.050;2023-02-24T17:04:54;9.47;;;5.33;;
13234;SDS011;6683;48.506;9.050;2023-02-24T17:07:56;9.70;;;4.90;;
13234;SDS011;6683;48.506;9.050;2023-02-24T17:10:59;8.63;;;4.97;;
13234;SDS011;6683;48.506;9.050;2023-02-24T17:14:01;9.10;;;4.80;;
13234;SDS011;6683;48.506;9.050;2023-02-24T17:17:05;10.40;;;5.47;;
13234;SDS011;6683;48.506;9.050;2023-02-24T17:20:09;9.43;;;5.10;;
13234;SDS011;6683;48.506;9.050;2023-02-24T17:23:14;10.03;;;5.10;;
13234;SDS011;6683;48.506;9.050;2023-02-24T17:26:17;8.43;;;5.03;;
13234;SDS011;6683;48.506;9.050;2023-02-24T17:29:19;11.40;;;5.00;;
13234;SDS011;6683;48.506;9.050;2023-02-24T17:32:23;8.43;;;5.00;;
13234;SDS011;6683;48.506;9.050;2023-02-24T17:35:26;7.00;;;4.87;;
13234;SDS011;6683;48.506;9.050;2023-02-24T17:38:29;7.70;;;5.43;;
13234;SDS011;6683;48.506;9.050;2023-02-24T17:41:32;7.87;;;5.77;;
13234;SDS011;6683;48.506;9.050;2023-02-24T17:44:34;7.37;;;4.70;;
13234;SDS011;6683;48.506;9.050;2023-02-24T17:47:38;7.93;;;5.40;;
13234;SDS011;6683;48.506;9.050;2023-02-24T17:50:42;10.50;;;5.23;;
13234;SDS011;6683;48.506;9.050;2023-02-24T17:53:45;9.80;;;5.80;;
13234;SDS011;6683;48.506;9.050;2023-02-24T17:56:48;8.43;;;4.90;;
13234;SDS011;6683;48.506;9.050;2023-02-24T17:59:51;8.70;;;5.80;;
13234;SDS011;6683;48.506;9.050;2023-02-24T18:02:55;10.53;;;6.03;;
13234;SDS011;6683;48.506;9.050;2023-02-24T18:05:57;9.67;;;5.70;;
13234;SDS011;6683;48.506;9.050;2023-02-24T18:09:00;9.60;;;5.90;;
13234;SDS011;6683;48.506;9.050;2023-02-24T18:12:02;8.93;;;5.40;;
13234;SDS011;6683;48.506;9.050;2023-02-24T18:15:06;10.30;;;6.00;;
13234;SDS011;6683;48.506;9.050;2023-02-24T18:18:11;9.57;;;5.93;;
13234;SDS011;6683;48.506;9.050;2023-02-24T18:21:14;9.87;;;4.97;;
13234;SDS011;6683;48.506;9.050;2023-02-24T18:24:17;8.60;;;4.90;;
13234;SDS011;6683;48.506;9.050;2023-02-24T18:27:21;6.93;;;4.93;;
13234;SDS011;6683;48.506;9.050;2023-02-24T18:30:23;8.70;;;4.67;;
13234;SDS011;6683;48.506;9.050;2023-02-24T18:33:28;5.53;;;4.23;;
13234;SDS011;6683;48.506;9.050;2023-02-24T18:36:30;7.33;;;3.87;;
13234;SDS011;6683;48.506;9.050;2023-02-24T18:39:32;5.00;;;3.37;;
13234;SDS011;6683;48.506;9.050;2023-02-24T18:42:35;4.50;;;2.93;;
13234;SDS011;6683;48.506;9.050;2023-02-24T18:45:37;5.53;;;3.57;;
13234;SDS011;6683;48.506;9.050;2023-02-24T18:48:41;5.10;;;3.50;;
13234;SDS011;6683;48.506;9.050;2023-02-24T18:51:44;4.60;;;2.80;;
13234;SDS011;6683;48.506;9.050;2023-02-24T18:54:47;4.63;;;3.13;;
13234;SDS011;6683;48.506;9.050;2023-02-24T18:57:52;4.60;;;2.47;;
13234;SDS011;6683;48.506;9.050;2023-02-24T19:00:54;4.10;;;2.77;;
13234;SDS011;6683;48.506;9.050;2023-02-24T19:03:58;2.53;;;2.00;;
13234;SDS011;6683;48.506;9.050;2023-02-24T19:07:02;2.70;;;1.70;;
13234;SDS011;6683;48.506;9.050;2023-02-24T19:10:07;2.00;;;1.53;;
13234;SDS011;6683;48.506;9.050;2023-02-24T19:13:11;1.63;;;1.40;;